createdAt,value
2023-04-08T00:00:19.984Z,81.65
2023-04-08T00:02:51.275Z,81.13
2023-04-08T00:05:30.090Z,81.50
2023-04-08T00:08:04.358Z,82.07
2023-04-08T00:10:37.236Z,81.80
2023-04-08T00:13:07.764Z,81.75
2023-04-08T00:15:44.344Z,83.05
2023-04-08T00:18:13.217Z,83.37
2023-04-08T00:20:41.584Z,83.79
2023-04-08T00:23:12.198Z,84.17
2023-04-08T00:25:41.761Z,85.57
2023-04-08T00:28:11.191Z,84.57
2023-04-08T00:30:40.731Z,84.95
2023-04-08T00:33:12.944Z,85.59
2023-04-08T00:35:41.081Z,85.55
2023-04-08T00:38:10.336Z,86.15
2023-04-08T00:40:39.197Z,87.32
2023-04-08T00:43:07.268Z,87.51
2023-04-08T00:45:36.938Z,88.42
2023-04-08T00:48:07.486Z,88.08
2023-04-08T00:50:35.426Z,89.01
2023-04-08T00:53:03.708Z,89.50
2023-04-08T00:55:32.684Z,89.90
2023-04-08T00:58:01.301Z,90.50
2023-04-08T01:00:31.728Z,90.91
2023-04-08T01:03:39.095Z,91.22
2023-04-08T01:06:22.083Z,90.88
2023-04-08T01:08:55.171Z,90.84
2023-04-08T01:11:24.782Z,91.98
2023-04-08T01:13:59.802Z,91.18
2023-04-08T01:16:40.946Z,91.48
2023-04-08T01:19:19.827Z,92.26
2023-04-08T01:21:50.819Z,91.32
2023-04-08T01:24:29.877Z,92.16
2023-04-08T01:27:04.859Z,91.93
2023-04-08T01:29:37.626Z,92.48
2023-04-08T01:32:09.084Z,91.83
2023-04-08T01:34:44.840Z,91.87
2023-04-08T01:37:20.331Z,91.78
2023-04-08T01:39:53.652Z,91.76
2023-04-08T01:42:25.732Z,91.87
2023-04-08T01:45:00.401Z,92.76
2023-04-08T01:47:33.455Z,92.30
2023-04-08T01:50:03.787Z,92.65
2023-04-08T01:52:36.652Z,92.58
2023-04-08T01:55:07.862Z,93.21
2023-04-08T01:57:45.318Z,92.75
2023-04-08T02:00:23.493Z,92.83
2023-04-08T02:02:55.018Z,93.00
2023-04-08T02:05:25.051Z,92.77
2023-04-08T02:07:53.617Z,93.71
2023-04-08T02:10:35.737Z,93.20
2023-04-08T02:13:11.834Z,93.54
2023-04-08T02:15:48.787Z,94.00
2023-04-08T02:18:37.951Z,93.66
2023-04-08T02:21:35.339Z,92.54
2023-04-08T02:24:09.674Z,93.43
2023-04-08T02:26:41.686Z,94.07
2023-04-08T02:29:22.008Z,93.94
2023-04-08T02:31:55.023Z,94.18
2023-04-08T02:34:26.067Z,93.63
2023-04-08T02:37:02.640Z,94.00
2023-04-08T02:39:34.509Z,94.15
2023-04-08T02:42:03.408Z,93.89
2023-04-08T02:44:37.921Z,93.92
2023-04-08T02:47:10.088Z,93.50
2023-04-08T02:49:43.800Z,93.31
2023-04-08T02:52:19.723Z,94.12
2023-04-08T02:54:53.296Z,94.07
2023-04-08T02:57:26.045Z,93.34
2023-04-08T03:02:54.069Z,94.12
2023-04-08T03:05:30.152Z,94.37
2023-04-08T03:07:59.994Z,93.86
2023-04-08T03:10:28.513Z,93.32
2023-04-08T03:13:11.342Z,92.84
2023-04-08T03:15:45.589Z,93.17
2023-04-08T03:18:14.790Z,92.80
2023-04-08T03:20:47.649Z,92.56
2023-04-08T03:23:20.423Z,92.33
2023-04-08T03:25:50.362Z,91.98
2023-04-08T03:28:21.661Z,93.07
2023-04-08T03:30:58.605Z,93.07
2023-04-08T03:33:43.151Z,92.42
2023-04-08T03:36:12.494Z,92.79
2023-04-08T03:38:40.518Z,92.67
2023-04-08T03:41:11.878Z,92.59
2023-04-08T03:43:47.623Z,93.00
2023-04-08T03:46:23.327Z,93.98
2023-04-08T03:49:01.400Z,94.05
2023-04-08T03:51:32.946Z,93.89
2023-04-08T03:54:08.981Z,94.35
2023-04-08T03:56:37.527Z,93.80
2023-04-08T03:59:08.211Z,93.38
2023-04-08T04:02:07.139Z,93.82
2023-04-08T04:04:42.371Z,93.64
2023-04-08T04:07:14.878Z,93.75
2023-04-08T04:09:53.809Z,93.22
2023-04-08T04:12:23.681Z,93.13
2023-04-08T04:14:54.232Z,91.91
2023-04-08T04:17:24.582Z,90.79
2023-04-08T04:19:57.432Z,90.18
2023-04-08T04:22:32.854Z,90.04
2023-04-08T04:25:13.969Z,88.91
2023-04-08T04:27:43.755Z,88.00
2023-04-08T04:30:26.277Z,87.69
2023-04-08T04:32:58.717Z,87.25
2023-04-08T04:35:30.401Z,86.66
2023-04-08T04:38:20.416Z,86.45
2023-04-08T04:40:52.335Z,86.51
2023-04-08T04:43:22.350Z,87.03
2023-04-08T04:45:58.357Z,86.84
2023-04-08T04:48:32.482Z,87.54
2023-04-08T04:51:03.358Z,88.50
2023-04-08T04:53:32.034Z,89.13
2023-04-08T04:56:03.428Z,88.28
2023-04-08T04:58:37.544Z,88.22
2023-04-08T05:01:06.667Z,87.98
2023-04-08T05:03:37.650Z,89.10
2023-04-08T05:06:06.513Z,89.15
2023-04-08T05:08:35.089Z,89.01
2023-04-08T05:11:04.783Z,88.35
2023-04-08T05:13:34.434Z,89.11
2023-04-08T05:16:05.764Z,88.59
2023-04-08T05:18:37.517Z,89.09
2023-04-08T05:21:06.110Z,89.76
2023-04-08T05:23:34.054Z,89.52
2023-04-08T05:26:02.675Z,89.69
2023-04-08T05:28:32.807Z,89.10
2023-04-08T05:31:01.292Z,89.09
2023-04-08T05:33:29.618Z,88.89
2023-04-08T05:35:59.639Z,89.20
2023-04-08T05:38:28.712Z,88.58
2023-04-08T05:40:57.186Z,88.02
2023-04-08T05:43:25.596Z,87.45
2023-04-08T05:45:56.282Z,88.10
2023-04-08T05:48:28.204Z,88.76
2023-04-08T05:50:56.488Z,87.21
2023-04-08T05:53:26.856Z,84.72
2023-04-08T05:55:55.020Z,85.27
2023-04-08T05:58:24.553Z,85.11
2023-04-08T06:00:53.282Z,84.80
2023-04-08T06:03:22.374Z,85.70
2023-04-08T06:05:50.928Z,83.52
2023-04-08T06:08:22.268Z,85.70
2023-04-08T06:10:53.849Z,82.87
2023-04-08T06:13:28.451Z,82.94
2023-04-08T06:16:00.301Z,83.35
2023-04-08T06:18:29.377Z,83.39
2023-04-08T06:21:03.657Z,81.21
2023-04-08T06:23:37.940Z,80.93
2023-04-08T06:26:08.051Z,80.28
2023-04-08T06:28:37.781Z,79.62
2023-04-08T06:31:06.352Z,79.79
2023-04-08T06:33:35.390Z,80.91
2023-04-08T06:36:05.182Z,78.84
2023-04-08T06:38:33.489Z,78.77
2023-04-08T06:41:04.245Z,78.95
2023-04-08T06:43:34.176Z,78.77
2023-04-08T06:46:09.428Z,79.16
2023-04-08T06:48:42.954Z,79.59
2023-04-08T06:51:13.142Z,79.35
2023-04-08T06:53:44.799Z,78.63
2023-04-08T06:56:13.280Z,77.76
2023-04-08T06:58:43.433Z,77.48
2023-04-08T07:01:13.954Z,77.95
2023-04-08T07:03:42.306Z,77.40
2023-04-08T07:06:13.072Z,77.36
2023-04-08T07:08:42.423Z,76.62
2023-04-08T07:11:14.164Z,75.28
2023-04-08T07:13:45.584Z,76.30
2023-04-08T07:16:25.410Z,75.57
2023-04-08T07:18:55.439Z,72.40
2023-04-08T07:21:33.356Z,73.67
2023-04-08T07:24:12.319Z,73.75
2023-04-08T07:26:44.728Z,70.90
2023-04-08T07:29:34.959Z,70.05
2023-04-08T07:32:04.589Z,68.87
2023-04-08T07:34:35.939Z,64.98
2023-04-08T07:37:06.731Z,64.47
2023-04-08T07:39:36.082Z,65.86
2023-04-08T07:42:05.605Z,66.33
2023-04-08T07:44:38.308Z,68.24
2023-04-08T07:47:08.411Z,68.53
2023-04-08T07:49:38.018Z,71.88
2023-04-08T07:52:06.709Z,69.73
2023-04-08T07:54:38.885Z,71.30
2023-04-08T07:57:08.414Z,67.63
2023-04-08T07:59:40.431Z,67.10
2023-04-08T08:02:11.487Z,68.84
2023-04-08T08:04:57.272Z,68.40
2023-04-08T08:07:27.331Z,68.30
2023-04-08T08:09:56.218Z,68.03
2023-04-08T08:12:25.015Z,68.55
2023-04-08T08:14:59.014Z,68.24
2023-04-08T08:17:30.554Z,67.51
2023-04-08T08:20:00.036Z,67.42
2023-04-08T08:22:54.254Z,68.01
2023-04-08T08:25:27.374Z,67.00
2023-04-08T08:27:58.196Z,67.30
2023-04-08T08:30:29.653Z,67.77
2023-04-08T08:33:02.089Z,67.74
2023-04-08T08:35:34.876Z,67.97
2023-04-08T08:38:05.386Z,70.99
2023-04-08T08:40:34.299Z,70.26
2023-04-08T08:43:02.799Z,71.28
2023-04-08T08:45:32.577Z,71.40
2023-04-08T08:48:01.333Z,71.49
2023-04-08T08:50:29.386Z,75.18
2023-04-08T08:53:00.532Z,74.99
2023-04-08T08:55:56.762Z,73.95
2023-04-08T08:58:23.979Z,72.16
2023-04-08T09:00:54.191Z,73.57
2023-04-08T09:03:25.048Z,74.52
2023-04-08T09:06:08.381Z,73.54
2023-04-08T09:08:40.656Z,71.75
2023-04-08T09:11:23.022Z,72.25
2023-04-08T09:13:55.321Z,69.26
2023-04-08T09:16:30.672Z,70.43
2023-04-08T09:19:10.662Z,69.86
2023-04-08T09:21:42.833Z,70.11
2023-04-08T09:24:30.418Z,67.61
2023-04-08T09:27:04.670Z,64.96
2023-04-08T09:29:35.924Z,65.08
2023-04-08T09:32:08.766Z,62.09
2023-04-08T09:34:38.074Z,60.94
2023-04-08T09:37:09.322Z,60.90
2023-04-08T09:39:38.532Z,59.50
2023-04-08T09:42:13.345Z,61.30
2023-04-08T09:44:44.714Z,58.91
2023-04-08T09:47:35.152Z,60.69
2023-04-08T09:50:08.949Z,60.81
2023-04-08T09:52:46.291Z,60.36
2023-04-08T09:55:16.687Z,60.32
2023-04-08T09:57:55.275Z,60.06
2023-04-08T10:00:39.481Z,60.80
2023-04-08T10:03:16.438Z,61.03
2023-04-08T10:05:48.486Z,60.50
2023-04-08T10:08:20.634Z,59.80
2023-04-08T10:10:48.788Z,58.29
2023-04-08T10:13:19.324Z,58.70
2023-04-08T10:15:49.295Z,58.33
2023-04-08T10:18:34.628Z,58.00
2023-04-08T10:21:03.676Z,58.06
2023-04-08T10:23:59.382Z,57.65
2023-04-08T10:26:34.440Z,57.93
2023-04-08T10:29:34.715Z,56.53
2023-04-08T10:32:03.311Z,58.46
2023-04-08T10:34:33.501Z,58.58
2023-04-08T10:37:04.136Z,58.87
2023-04-08T10:39:38.289Z,60.32
2023-04-08T10:42:10.152Z,59.74
2023-04-08T10:44:41.238Z,60.41
2023-04-08T10:47:09.276Z,60.72
2023-04-08T10:49:40.500Z,60.94
2023-04-08T10:52:10.803Z,60.50
2023-04-08T10:54:40.710Z,58.82
2023-04-08T10:57:10.435Z,58.78
2023-04-08T10:59:40.388Z,57.31
2023-04-08T11:02:17.382Z,58.10
2023-04-08T11:04:48.458Z,57.32
2023-04-08T11:07:17.507Z,57.08
2023-04-08T11:09:45.967Z,57.91
2023-04-08T11:12:18.363Z,56.68
2023-04-08T11:14:48.513Z,56.25
2023-04-08T11:17:17.935Z,56.57
2023-04-08T11:20:02.778Z,57.67
2023-04-08T11:22:33.784Z,58.33
2023-04-08T11:25:08.204Z,58.46
2023-04-08T11:27:36.536Z,57.75
2023-04-08T11:30:14.657Z,58.91
2023-04-08T11:32:43.190Z,57.51
2023-04-08T11:35:16.194Z,58.18
2023-04-08T11:37:47.536Z,58.21
2023-04-08T11:40:24.967Z,58.60
2023-04-08T11:42:54.713Z,58.02
2023-04-08T11:45:27.058Z,58.11
2023-04-08T11:47:55.434Z,56.78
2023-04-08T11:50:32.498Z,56.96
2023-04-08T11:53:03.101Z,57.84
2023-04-08T11:55:35.296Z,59.42
2023-04-08T11:58:05.114Z,58.78
2023-04-08T12:00:34.720Z,59.58
2023-04-08T12:03:03.767Z,62.05
2023-04-08T12:05:33.775Z,63.49
2023-04-08T12:08:03.608Z,62.19
2023-04-08T12:10:33.262Z,61.72
2023-04-08T12:13:03.104Z,60.56
2023-04-08T12:15:33.449Z,58.38
2023-04-08T12:18:03.131Z,58.17
2023-04-08T12:20:33.429Z,57.79
2023-04-08T12:23:01.656Z,57.50
2023-04-08T12:25:31.560Z,59.65
2023-04-08T12:28:01.899Z,60.48
2023-04-08T12:30:30.804Z,61.30
2023-04-08T12:33:00.570Z,61.93
2023-04-08T12:35:29.684Z,61.50
2023-04-08T12:37:59.396Z,62.44
2023-04-08T12:40:28.926Z,61.69
2023-04-08T12:42:57.855Z,60.84
2023-04-08T12:45:25.952Z,59.60
2023-04-08T12:47:56.961Z,59.24
2023-04-08T12:50:25.914Z,60.94
2023-04-08T12:52:55.657Z,60.76
2023-04-08T12:55:26.202Z,60.34
2023-04-08T12:57:55.539Z,59.21
2023-04-08T13:00:28.837Z,59.14
2023-04-08T13:02:58.699Z,57.94
2023-04-08T13:05:42.034Z,58.84
2023-04-08T13:08:13.353Z,60.09
2023-04-08T13:10:43.664Z,60.65
2023-04-08T13:13:15.010Z,59.46
2023-04-08T13:15:43.940Z,60.20
2023-04-08T13:18:14.621Z,61.30
2023-04-08T13:20:43.132Z,61.21
2023-04-08T13:23:13.486Z,60.27
2023-04-08T13:25:51.328Z,60.42
2023-04-08T13:28:19.482Z,60.49
2023-04-08T13:30:49.528Z,59.62
2023-04-08T13:33:17.867Z,59.61
2023-04-08T13:35:47.060Z,59.63
2023-04-08T13:38:23.140Z,59.95
2023-04-08T13:40:54.269Z,61.13
2023-04-08T13:43:24.820Z,61.02
2023-04-08T13:45:54.741Z,60.86
2023-04-08T13:48:25.871Z,62.59
2023-04-08T13:50:55.166Z,61.28
2023-04-08T13:53:25.314Z,62.41
2023-04-08T13:55:56.116Z,63.13
2023-04-08T13:58:24.650Z,62.94
2023-04-08T14:00:54.451Z,63.24
2023-04-08T14:03:22.982Z,62.05
2023-04-08T14:05:51.499Z,62.51
2023-04-08T14:08:25.548Z,62.32
2023-04-08T14:10:58.491Z,61.90
2023-04-08T14:13:26.593Z,63.34
2023-04-08T14:15:59.384Z,61.69
2023-04-08T14:18:29.558Z,62.14
2023-04-08T14:20:59.928Z,61.60
2023-04-08T14:23:28.048Z,62.71
2023-04-08T14:26:02.458Z,63.51
2023-04-08T14:28:31.187Z,63.05
2023-04-08T14:31:00.058Z,62.64
2023-04-08T14:33:29.250Z,61.70
2023-04-08T14:36:00.328Z,61.91
2023-04-08T14:38:31.626Z,61.78
2023-04-08T14:41:03.494Z,62.57
2023-04-08T14:43:33.998Z,62.98
2023-04-08T14:46:02.352Z,63.61
2023-04-08T14:48:38.611Z,62.65
2023-04-08T14:51:11.635Z,61.41
2023-04-08T14:53:39.912Z,60.96
2023-04-08T14:56:31.068Z,60.31
2023-04-08T14:59:01.194Z,59.82
2023-04-08T15:01:32.531Z,59.14
2023-04-08T15:04:04.310Z,60.91
2023-04-08T15:06:35.145Z,60.17
2023-04-08T15:09:09.386Z,60.50
2023-04-08T15:11:39.195Z,60.32
2023-04-08T15:14:13.215Z,60.30
2023-04-08T15:16:42.429Z,60.20
2023-04-08T15:19:14.609Z,61.62
2023-04-08T15:21:42.790Z,61.37
2023-04-08T15:24:13.528Z,57.08
2023-04-08T15:26:56.910Z,50.46
2023-04-08T15:29:28.944Z,49.02
2023-04-08T15:31:58.048Z,50.53
2023-04-08T15:34:29.430Z,55.47
2023-04-08T15:36:58.815Z,58.15
2023-04-08T15:39:36.410Z,59.50
2023-04-08T15:42:09.614Z,61.09
2023-04-08T15:44:39.217Z,60.74
2023-04-08T15:47:09.663Z,61.70
2023-04-08T15:49:40.585Z,63.27
2023-04-08T15:52:10.706Z,63.54
2023-04-08T15:54:38.730Z,63.22
2023-04-08T15:57:11.007Z,65.34
2023-04-08T15:59:55.527Z,64.73
2023-04-08T16:02:25.725Z,63.90
2023-04-08T16:04:53.680Z,64.38
2023-04-08T16:07:23.183Z,64.08
2023-04-08T16:09:51.302Z,63.63
2023-04-08T16:12:25.685Z,63.30
2023-04-08T16:14:54.403Z,63.70
2023-04-08T16:17:23.490Z,63.85
2023-04-08T16:19:51.645Z,64.20
2023-04-08T16:22:20.801Z,63.19
2023-04-08T16:24:53.197Z,63.59
2023-04-08T16:27:24.573Z,64.85
2023-04-08T16:29:54.452Z,64.55
2023-04-08T16:32:22.929Z,64.01
2023-04-08T16:34:55.355Z,64.68
2023-04-08T16:37:24.304Z,63.67
2023-04-08T16:39:52.840Z,64.78
2023-04-08T16:42:22.697Z,63.86
2023-04-08T16:44:52.725Z,64.34
2023-04-08T16:47:30.134Z,63.13
2023-04-08T16:50:00.215Z,63.64
2023-04-08T16:52:28.743Z,62.41
2023-04-08T16:54:57.980Z,61.65
2023-04-08T16:57:29.006Z,61.04
2023-04-08T16:59:57.387Z,61.50
2023-04-08T17:02:26.270Z,60.51
2023-04-08T17:04:54.670Z,59.48
2023-04-08T17:07:23.232Z,58.03
2023-04-08T17:09:52.909Z,57.93
2023-04-08T17:12:22.216Z,55.60
2023-04-08T17:14:53.317Z,54.43
2023-04-08T17:17:21.702Z,54.18
2023-04-08T17:19:52.485Z,54.28
2023-04-08T17:22:21.564Z,54.75
2023-04-08T17:24:53.207Z,54.87
2023-04-08T17:27:22.395Z,55.42
2023-04-08T17:29:57.764Z,54.68
2023-04-08T17:32:26.494Z,55.49
2023-04-08T17:34:57.231Z,55.81
2023-04-08T17:37:25.713Z,56.03
2023-04-08T17:39:54.699Z,56.81
2023-04-08T17:42:23.813Z,57.67
2023-04-08T17:45:00.368Z,58.45
2023-04-08T17:47:31.089Z,57.47
2023-04-08T17:49:59.452Z,57.43
2023-04-08T17:52:28.993Z,57.91
2023-04-08T17:54:58.316Z,58.96
2023-04-08T17:57:26.753Z,58.70
2023-04-08T17:59:57.538Z,59.12
2023-04-08T18:02:29.088Z,59.92
2023-04-08T18:04:58.696Z,60.44
2023-04-08T18:07:30.589Z,59.99
2023-04-08T18:09:58.637Z,60.14
2023-04-08T18:12:30.577Z,59.48
2023-04-08T18:15:01.563Z,61.11
2023-04-08T18:17:29.514Z,60.62
2023-04-08T18:19:59.695Z,60.65
2023-04-08T18:22:29.989Z,60.94
2023-04-08T18:24:58.024Z,61.27
2023-04-08T18:27:26.487Z,60.84
2023-04-08T18:29:56.940Z,61.26
2023-04-08T18:32:28.568Z,61.35
2023-04-08T18:34:59.677Z,61.21
2023-04-08T18:37:30.899Z,61.61
2023-04-08T18:40:01.661Z,61.50
2023-04-08T18:42:30.975Z,61.34
2023-04-08T18:44:59.325Z,61.58
2023-04-08T18:47:33.542Z,61.29
2023-04-08T18:50:01.741Z,60.74
2023-04-08T18:52:29.866Z,61.16
2023-04-08T18:55:01.370Z,60.99
2023-04-08T18:57:29.321Z,60.46
2023-04-08T19:00:00.501Z,60.68
2023-04-08T19:02:31.998Z,60.74
2023-04-08T19:05:00.891Z,61.22
2023-04-08T19:07:30.152Z,61.28
2023-04-08T19:10:01.805Z,61.41
2023-04-08T19:12:31.458Z,61.22
2023-04-08T19:15:04.015Z,62.12
2023-04-08T19:17:34.094Z,62.06
2023-04-08T19:20:03.849Z,61.85
2023-04-08T19:22:32.081Z,61.99
2023-04-08T19:25:02.001Z,62.51
2023-04-08T19:27:30.894Z,62.14
2023-04-08T19:30:02.387Z,62.75
2023-04-08T19:32:35.687Z,64.15
2023-04-08T19:35:08.886Z,65.06
2023-04-08T19:37:37.841Z,65.15
2023-04-08T19:40:11.749Z,66.06
2023-04-08T19:42:39.783Z,65.92
2023-04-08T19:45:10.977Z,66.30
2023-04-08T19:47:43.533Z,66.52
2023-04-08T19:50:13.652Z,66.23
2023-04-08T19:52:44.710Z,66.16
2023-04-08T19:55:15.118Z,66.12
2023-04-08T19:57:44.504Z,65.90
2023-04-08T20:00:14.341Z,66.35
2023-04-08T20:02:46.412Z,66.56
2023-04-08T20:05:17.939Z,66.33
2023-04-08T20:07:46.620Z,65.89
2023-04-08T20:10:16.280Z,67.32
2023-04-08T20:12:45.030Z,66.76
2023-04-08T20:15:23.567Z,66.88
2023-04-08T20:17:54.592Z,67.09
2023-04-08T20:20:23.205Z,66.55
2023-04-08T20:22:52.595Z,67.18
2023-04-08T20:25:21.824Z,67.64
2023-04-08T20:27:59.449Z,67.61
2023-04-08T20:30:27.918Z,67.51
2023-04-08T20:33:01.302Z,68.27
2023-04-08T20:35:32.733Z,68.47
2023-04-08T20:38:02.806Z,68.48
2023-04-08T20:40:34.590Z,68.33
2023-04-08T20:43:03.248Z,69.11
2023-04-08T20:45:36.461Z,68.73
2023-04-08T20:48:14.840Z,68.81
2023-04-08T20:50:44.243Z,69.06
2023-04-08T20:53:20.498Z,69.42
2023-04-08T20:55:48.482Z,70.24
2023-04-08T20:58:18.394Z,69.59
2023-04-08T21:00:47.956Z,70.50
2023-04-08T21:03:20.711Z,70.54
2023-04-08T21:05:50.294Z,70.37
2023-04-08T21:08:18.228Z,70.66
2023-04-08T21:10:46.106Z,70.37
2023-04-08T21:13:14.200Z,71.11
2023-04-08T21:15:43.777Z,71.66
2023-04-08T21:18:12.809Z,71.67
2023-04-08T21:20:42.664Z,72.77
2023-04-08T21:23:14.576Z,72.20
2023-04-08T21:25:43.052Z,71.56
2023-04-08T21:28:19.216Z,71.79
2023-04-08T21:30:49.264Z,71.32
2023-04-08T21:33:19.435Z,71.38
2023-04-08T21:35:49.250Z,71.01
2023-04-08T21:38:18.398Z,70.83
2023-04-08T21:40:49.461Z,70.79
2023-04-08T21:43:18.448Z,70.38
2023-04-08T21:45:46.469Z,70.13
2023-04-08T21:48:14.732Z,70.68
2023-04-08T21:50:45.587Z,70.50
2023-04-08T21:53:15.754Z,70.70
2023-04-08T21:55:46.874Z,70.54
2023-04-08T21:58:15.142Z,70.60
2023-04-08T22:00:45.406Z,69.82
2023-04-08T22:03:14.265Z,70.34
2023-04-08T22:05:43.330Z,70.30
2023-04-08T22:08:13.827Z,71.17
2023-04-08T22:10:44.685Z,71.21
2023-04-08T22:13:17.413Z,71.32
2023-04-08T22:15:46.431Z,70.73
2023-04-08T22:18:14.259Z,70.33
2023-04-08T22:20:42.465Z,71.52
2023-04-08T22:23:10.759Z,71.07
2023-04-08T22:25:39.383Z,70.96
2023-04-08T22:28:09.437Z,71.25
2023-04-08T22:30:37.625Z,71.28
2023-04-08T22:33:05.898Z,71.88
2023-04-08T22:35:35.003Z,71.27
2023-04-08T22:38:08.960Z,71.16
2023-04-08T22:40:38.934Z,70.88
2023-04-08T22:43:08.290Z,70.71
2023-04-08T22:45:37.695Z,70.59
2023-04-08T22:48:06.649Z,70.63
2023-04-08T22:50:36.321Z,71.11
2023-04-08T22:53:04.567Z,71.96
2023-04-08T22:55:33.639Z,71.27
2023-04-08T22:58:08.591Z,71.33
2023-04-08T23:00:37.807Z,71.46
2023-04-08T23:03:07.772Z,71.72
2023-04-08T23:05:40.178Z,71.19
2023-04-08T23:08:10.011Z,71.06
2023-04-08T23:10:39.868Z,71.67
2023-04-08T23:13:09.968Z,71.31
2023-04-08T23:15:38.031Z,71.24
2023-04-08T23:18:09.334Z,70.75
2023-04-08T23:20:40.332Z,71.30
2023-04-08T23:23:08.558Z,70.91
2023-04-08T23:25:37.692Z,71.47
2023-04-08T23:28:07.435Z,71.04
2023-04-08T23:30:40.921Z,70.53
2023-04-08T23:33:10.319Z,71.02
2023-04-08T23:35:40.315Z,70.52
2023-04-08T23:38:08.658Z,70.34
2023-04-08T23:40:36.780Z,70.85
2023-04-08T23:43:07.084Z,70.43
2023-04-08T23:45:36.938Z,71.12
2023-04-08T23:48:10.064Z,70.38
2023-04-08T23:50:41.319Z,69.86
2023-04-08T23:53:09.412Z,70.13
2023-04-08T23:55:39.347Z,70.87
2023-04-08T23:58:07.295Z,70.66
